Doubs, Maryland
Current Conditions -  °F | °C
As of 8:30 PM on Thursday 27 Nov 2014 (Local Time) from KFDK Reporting Station
Overcast Overcast  
Wind Chill: 30°   Ceiling: 4100
Heat Index: 37°   Visibility: 10mi
Dew Point: 30°   Wind: 10mph
Humidity: 75%   Direction: 280°W
Pressure: 30.17"   Gusts: NA
Location:  39.293°N, 77.4503°W
Report Text: KFDK 280130Z AUTO 28009KT 10SM SCT019 BKN041 OVC060 03/M01 A3017 RMK AO2 LTG DSNT E
Loading
Personal Weather Stations






























Interactive Weather Map New forecast layout! Learn more

10-Day Weather Forecast

Advertisements
Track Severe Weather on mobile